sensor_id;sensor_type;location;lat;lon;timestamp;P1;durP1;ratioP1;P2;durP2;ratioP2
54167;SDS011;68429;50.958;3.592;2024-01-11T00:00:47;32.92;;;17.50;;
54167;SDS011;68429;50.958;3.592;2024-01-11T00:03:13;34.55;;;17.08;;
54167;SDS011;68429;50.958;3.592;2024-01-11T00:05:39;36.60;;;16.58;;
54167;SDS011;68429;50.958;3.592;2024-01-11T00:08:06;37.45;;;17.33;;
54167;SDS011;68429;50.958;3.592;2024-01-11T00:10:32;33.83;;;16.88;;
54167;SDS011;68429;50.958;3.592;2024-01-11T00:12:58;33.78;;;17.65;;
54167;SDS011;68429;50.958;3.592;2024-01-11T00:15:24;31.88;;;16.77;;
54167;SDS011;68429;50.958;3.592;2024-01-11T00:17:49;35.42;;;16.88;;
54167;SDS011;68429;50.958;3.592;2024-01-11T00:20:15;32.80;;;18.13;;
54167;SDS011;68429;50.958;3.592;2024-01-11T00:22:41;38.85;;;17.63;;
54167;SDS011;68429;50.958;3.592;2024-01-11T00:25:07;32.40;;;16.83;;
54167;SDS011;68429;50.958;3.592;2024-01-11T00:27:33;36.95;;;16.70;;
54167;SDS011;68429;50.958;3.592;2024-01-11T00:29:59;34.38;;;16.77;;
54167;SDS011;68429;50.958;3.592;2024-01-11T00:32:24;34.10;;;16.00;;
54167;SDS011;68429;50.958;3.592;2024-01-11T00:34:50;32.05;;;16.15;;
54167;SDS011;68429;50.958;3.592;2024-01-11T00:37:16;37.05;;;17.25;;
54167;SDS011;68429;50.958;3.592;2024-01-11T00:39:41;41.13;;;16.73;;
54167;SDS011;68429;50.958;3.592;2024-01-11T00:42:07;37.00;;;17.95;;
54167;SDS011;68429;50.958;3.592;2024-01-11T00:44:33;34.40;;;17.60;;
54167;SDS011;68429;50.958;3.592;2024-01-11T00:46:59;32.83;;;17.17;;
54167;SDS011;68429;50.958;3.592;2024-01-11T00:49:24;29.83;;;16.73;;
54167;SDS011;68429;50.958;3.592;2024-01-11T00:51:50;35.53;;;16.15;;
54167;SDS011;68429;50.958;3.592;2024-01-11T00:54:15;31.15;;;16.85;;
54167;SDS011;68429;50.958;3.592;2024-01-11T00:56:41;36.47;;;15.98;;
54167;SDS011;68429;50.958;3.592;2024-01-11T00:59:07;33.70;;;17.20;;
54167;SDS011;68429;50.958;3.592;2024-01-11T01:01:32;32.83;;;15.13;;
54167;SDS011;68429;50.958;3.592;2024-01-11T01:03:58;31.50;;;16.98;;
54167;SDS011;68429;50.958;3.592;2024-01-11T01:06:24;37.47;;;17.50;;
54167;SDS011;68429;50.958;3.592;2024-01-11T01:08:49;34.75;;;17.35;;
54167;SDS011;68429;50.958;3.592;2024-01-11T01:11:15;34.58;;;16.42;;
54167;SDS011;68429;50.958;3.592;2024-01-11T01:13:41;31.02;;;16.55;;
54167;SDS011;68429;50.958;3.592;2024-01-11T01:16:06;35.92;;;17.42;;
54167;SDS011;68429;50.958;3.592;2024-01-11T01:18:32;37.95;;;16.95;;
54167;SDS011;68429;50.958;3.592;2024-01-11T01:20:57;32.83;;;17.35;;
54167;SDS011;68429;50.958;3.592;2024-01-11T01:23:23;30.55;;;16.13;;
54167;SDS011;68429;50.958;3.592;2024-01-11T01:25:49;34.42;;;17.65;;
54167;SDS011;68429;50.958;3.592;2024-01-11T01:28:14;32.17;;;17.35;;
54167;SDS011;68429;50.958;3.592;2024-01-11T01:30:40;33.92;;;16.75;;
54167;SDS011;68429;50.958;3.592;2024-01-11T01:33:06;31.85;;;17.00;;
54167;SDS011;68429;50.958;3.592;2024-01-11T01:35:31;33.92;;;15.82;;
54167;SDS011;68429;50.958;3.592;2024-01-11T01:37:58;32.70;;;17.48;;
54167;SDS011;68429;50.958;3.592;2024-01-11T01:40:24;36.75;;;18.27;;
54167;SDS011;68429;50.958;3.592;2024-01-11T01:42:49;31.30;;;17.30;;
54167;SDS011;68429;50.958;3.592;2024-01-11T01:45:15;34.35;;;17.27;;
54167;SDS011;68429;50.958;3.592;2024-01-11T01:47:42;30.92;;;17.00;;
54167;SDS011;68429;50.958;3.592;2024-01-11T01:50:10;27.42;;;14.10;;
54167;SDS011;68429;50.958;3.592;2024-01-11T01:52:36;34.80;;;17.48;;
54167;SDS011;68429;50.958;3.592;2024-01-11T01:55:04;35.85;;;17.70;;
54167;SDS011;68429;50.958;3.592;2024-01-11T01:57:32;32.08;;;15.85;;
54167;SDS011;68429;50.958;3.592;2024-01-11T01:59:59;34.55;;;17.42;;
54167;SDS011;68429;50.958;3.592;2024-01-11T02:02:27;31.65;;;17.20;;
54167;SDS011;68429;50.958;3.592;2024-01-11T02:04:53;32.30;;;15.05;;
54167;SDS011;68429;50.958;3.592;2024-01-11T02:07:19;32.15;;;16.80;;
54167;SDS011;68429;50.958;3.592;2024-01-11T02:09:45;29.30;;;16.48;;
54167;SDS011;68429;50.958;3.592;2024-01-11T02:12:12;32.80;;;17.30;;
54167;SDS011;68429;50.958;3.592;2024-01-11T02:14:38;29.60;;;15.75;;
54167;SDS011;68429;50.958;3.592;2024-01-11T02:17:05;28.48;;;15.35;;
54167;SDS011;68429;50.958;3.592;2024-01-11T02:19:31;31.00;;;16.88;;
54167;SDS011;68429;50.958;3.592;2024-01-11T02:21:59;34.72;;;17.40;;
54167;SDS011;68429;50.958;3.592;2024-01-11T02:24:30;31.15;;;16.02;;
54167;SDS011;68429;50.958;3.592;2024-01-11T02:26:59;30.25;;;16.27;;
54167;SDS011;68429;50.958;3.592;2024-01-11T02:29:26;29.23;;;16.88;;
54167;SDS011;68429;50.958;3.592;2024-01-11T02:31:53;32.33;;;17.65;;
54167;SDS011;68429;50.958;3.592;2024-01-11T02:34:19;34.80;;;17.25;;
54167;SDS011;68429;50.958;3.592;2024-01-11T02:36:45;34.55;;;17.05;;
54167;SDS011;68429;50.958;3.592;2024-01-11T02:39:11;30.30;;;15.95;;
54167;SDS011;68429;50.958;3.592;2024-01-11T02:41:41;31.23;;;16.20;;
54167;SDS011;68429;50.958;3.592;2024-01-11T02:44:08;35.97;;;17.35;;
54167;SDS011;68429;50.958;3.592;2024-01-11T02:46:33;32.28;;;16.95;;
54167;SDS011;68429;50.958;3.592;2024-01-11T02:48:59;31.60;;;17.55;;
54167;SDS011;68429;50.958;3.592;2024-01-11T02:51:25;30.75;;;16.33;;
54167;SDS011;68429;50.958;3.592;2024-01-11T02:53:50;29.92;;;16.38;;
54167;SDS011;68429;50.958;3.592;2024-01-11T02:56:16;32.10;;;16.90;;
54167;SDS011;68429;50.958;3.592;2024-01-11T02:58:42;31.48;;;17.00;;
54167;SDS011;68429;50.958;3.592;2024-01-11T03:01:07;31.58;;;16.45;;
54167;SDS011;68429;50.958;3.592;2024-01-11T03:03:33;31.80;;;16.67;;
54167;SDS011;68429;50.958;3.592;2024-01-11T03:05:58;39.88;;;17.58;;
54167;SDS011;68429;50.958;3.592;2024-01-11T03:08:25;33.30;;;17.65;;
54167;SDS011;68429;50.958;3.592;2024-01-11T03:10:51;36.03;;;16.60;;
54167;SDS011;68429;50.958;3.592;2024-01-11T03:13:17;29.35;;;17.35;;
54167;SDS011;68429;50.958;3.592;2024-01-11T03:15:42;35.25;;;17.10;;
54167;SDS011;68429;50.958;3.592;2024-01-11T03:18:08;31.80;;;17.63;;
54167;SDS011;68429;50.958;3.592;2024-01-11T03:20:34;34.95;;;17.05;;
54167;SDS011;68429;50.958;3.592;2024-01-11T03:23:00;34.33;;;17.55;;
54167;SDS011;68429;50.958;3.592;2024-01-11T03:25:25;31.67;;;16.17;;
54167;SDS011;68429;50.958;3.592;2024-01-11T03:27:51;34.72;;;16.20;;
54167;SDS011;68429;50.958;3.592;2024-01-11T03:30:17;28.70;;;16.98;;
54167;SDS011;68429;50.958;3.592;2024-01-11T03:32:42;30.77;;;16.63;;
54167;SDS011;68429;50.958;3.592;2024-01-11T03:35:08;28.45;;;16.23;;
54167;SDS011;68429;50.958;3.592;2024-01-11T03:37:34;31.40;;;17.20;;
54167;SDS011;68429;50.958;3.592;2024-01-11T03:40:00;33.78;;;17.85;;
54167;SDS011;68429;50.958;3.592;2024-01-11T03:42:27;29.63;;;16.38;;
54167;SDS011;68429;50.958;3.592;2024-01-11T03:44:53;38.08;;;18.83;;
54167;SDS011;68429;50.958;3.592;2024-01-11T03:47:19;32.65;;;18.02;;
54167;SDS011;68429;50.958;3.592;2024-01-11T03:49:45;31.20;;;16.52;;
54167;SDS011;68429;50.958;3.592;2024-01-11T03:52:10;32.72;;;17.85;;
54167;SDS011;68429;50.958;3.592;2024-01-11T03:54:36;39.03;;;18.92;;
54167;SDS011;68429;50.958;3.592;2024-01-11T03:57:02;35.78;;;17.67;;
54167;SDS011;68429;50.958;3.592;2024-01-11T03:59:27;31.58;;;18.13;;
54167;SDS011;68429;50.958;3.592;2024-01-11T04:01:53;32.60;;;16.77;;
54167;SDS011;68429;50.958;3.592;2024-01-11T04:04:19;33.85;;;17.00;;
54167;SDS011;68429;50.958;3.592;2024-01-11T04:06:45;28.90;;;17.27;;
54167;SDS011;68429;50.958;3.592;2024-01-11T04:09:10;30.38;;;17.08;;
54167;SDS011;68429;50.958;3.592;2024-01-11T04:11:36;33.65;;;17.27;;
54167;SDS011;68429;50.958;3.592;2024-01-11T04:14:02;31.55;;;16.48;;
54167;SDS011;68429;50.958;3.592;2024-01-11T04:16:28;31.77;;;17.55;;
54167;SDS011;68429;50.958;3.592;2024-01-11T04:18:54;35.90;;;18.98;;
54167;SDS011;68429;50.958;3.592;2024-01-11T04:21:22;35.00;;;17.70;;
54167;SDS011;68429;50.958;3.592;2024-01-11T04:23:49;32.97;;;17.45;;
54167;SDS011;68429;50.958;3.592;2024-01-11T04:26:15;38.20;;;18.45;;
54167;SDS011;68429;50.958;3.592;2024-01-11T04:28:44;34.30;;;18.15;;
54167;SDS011;68429;50.958;3.592;2024-01-11T04:31:11;34.83;;;17.63;;
54167;SDS011;68429;50.958;3.592;2024-01-11T04:33:39;39.78;;;19.35;;
54167;SDS011;68429;50.958;3.592;2024-01-11T04:36:06;32.58;;;18.02;;
54167;SDS011;68429;50.958;3.592;2024-01-11T04:38:32;36.65;;;18.77;;
54167;SDS011;68429;50.958;3.592;2024-01-11T04:40:58;32.17;;;17.90;;
54167;SDS011;68429;50.958;3.592;2024-01-11T04:43:24;35.38;;;18.58;;
54167;SDS011;68429;50.958;3.592;2024-01-11T04:45:49;31.80;;;17.45;;
54167;SDS011;68429;50.958;3.592;2024-01-11T04:48:15;32.45;;;17.90;;
54167;SDS011;68429;50.958;3.592;2024-01-11T04:50:40;35.28;;;19.77;;
54167;SDS011;68429;50.958;3.592;2024-01-11T04:53:06;37.40;;;19.35;;
54167;SDS011;68429;50.958;3.592;2024-01-11T04:55:32;33.60;;;18.60;;
54167;SDS011;68429;50.958;3.592;2024-01-11T04:57:57;37.60;;;18.95;;
54167;SDS011;68429;50.958;3.592;2024-01-11T05:00:23;33.08;;;17.63;;
54167;SDS011;68429;50.958;3.592;2024-01-11T05:02:49;37.97;;;19.27;;
54167;SDS011;68429;50.958;3.592;2024-01-11T05:05:14;34.30;;;18.80;;
54167;SDS011;68429;50.958;3.592;2024-01-11T05:07:40;36.42;;;19.25;;
54167;SDS011;68429;50.958;3.592;2024-01-11T05:10:06;36.17;;;19.15;;
54167;SDS011;68429;50.958;3.592;2024-01-11T05:12:32;34.00;;;18.30;;
54167;SDS011;68429;50.958;3.592;2024-01-11T05:14:58;39.80;;;18.95;;
54167;SDS011;68429;50.958;3.592;2024-01-11T05:17:24;35.33;;;19.50;;
54167;SDS011;68429;50.958;3.592;2024-01-11T05:19:51;36.03;;;19.20;;
54167;SDS011;68429;50.958;3.592;2024-01-11T05:22:17;36.70;;;19.02;;
54167;SDS011;68429;50.958;3.592;2024-01-11T05:24:43;38.20;;;19.23;;
54167;SDS011;68429;50.958;3.592;2024-01-11T05:27:08;40.58;;;19.80;;
54167;SDS011;68429;50.958;3.592;2024-01-11T05:29:34;37.13;;;20.23;;
54167;SDS011;68429;50.958;3.592;2024-01-11T05:32:00;42.65;;;20.88;;
54167;SDS011;68429;50.958;3.592;2024-01-11T05:34:25;46.33;;;21.85;;
54167;SDS011;68429;50.958;3.592;2024-01-11T05:36:51;39.80;;;21.73;;
54167;SDS011;68429;50.958;3.592;2024-01-11T05:39:17;42.85;;;21.60;;
54167;SDS011;68429;50.958;3.592;2024-01-11T05:41:45;41.38;;;20.38;;
54167;SDS011;68429;50.958;3.592;2024-01-11T05:44:11;35.80;;;20.02;;
54167;SDS011;68429;50.958;3.592;2024-01-11T05:46:37;41.33;;;21.52;;
54167;SDS011;68429;50.958;3.592;2024-01-11T05:49:02;37.33;;;20.48;;
54167;SDS011;68429;50.958;3.592;2024-01-11T05:51:28;42.47;;;21.95;;
54167;SDS011;68429;50.958;3.592;2024-01-11T05:53:54;42.08;;;21.45;;
54167;SDS011;68429;50.958;3.592;2024-01-11T05:56:20;40.47;;;20.88;;
54167;SDS011;68429;50.958;3.592;2024-01-11T05:58:46;44.05;;;21.45;;
54167;SDS011;68429;50.958;3.592;2024-01-11T06:01:11;43.85;;;21.88;;
54167;SDS011;68429;50.958;3.592;2024-01-11T06:03:37;46.03;;;21.98;;
54167;SDS011;68429;50.958;3.592;2024-01-11T06:06:04;45.63;;;23.45;;
54167;SDS011;68429;50.958;3.592;2024-01-11T06:08:30;44.50;;;21.10;;
54167;SDS011;68429;50.958;3.592;2024-01-11T06:10:56;40.83;;;21.88;;
54167;SDS011;68429;50.958;3.592;2024-01-11T06:13:22;41.22;;;21.48;;
54167;SDS011;68429;50.958;3.592;2024-01-11T06:15:48;37.95;;;20.90;;
54167;SDS011;68429;50.958;3.592;2024-01-11T06:18:15;41.40;;;22.42;;
54167;SDS011;68429;50.958;3.592;2024-01-11T06:20:41;50.97;;;21.60;;
54167;SDS011;68429;50.958;3.592;2024-01-11T06:23:07;44.38;;;23.02;;
54167;SDS011;68429;50.958;3.592;2024-01-11T06:25:32;47.13;;;22.50;;
54167;SDS011;68429;50.958;3.592;2024-01-11T06:27:58;48.30;;;23.38;;
54167;SDS011;68429;50.958;3.592;2024-01-11T06:30:24;40.22;;;21.60;;
54167;SDS011;68429;50.958;3.592;2024-01-11T06:32:50;43.00;;;22.60;;
54167;SDS011;68429;50.958;3.592;2024-01-11T06:35:16;47.75;;;22.08;;
54167;SDS011;68429;50.958;3.592;2024-01-11T06:37:42;43.30;;;21.38;;
54167;SDS011;68429;50.958;3.592;2024-01-11T06:40:08;39.97;;;21.30;;
54167;SDS011;68429;50.958;3.592;2024-01-11T06:42:34;41.65;;;22.52;;
54167;SDS011;68429;50.958;3.592;2024-01-11T06:44:59;41.88;;;21.00;;
54167;SDS011;68429;50.958;3.592;2024-01-11T06:47:26;49.75;;;23.27;;
54167;SDS011;68429;50.958;3.592;2024-01-11T06:49:51;37.97;;;20.67;;
54167;SDS011;68429;50.958;3.592;2024-01-11T06:52:18;42.08;;;22.27;;
54167;SDS011;68429;50.958;3.592;2024-01-11T06:54:44;46.05;;;23.17;;
54167;SDS011;68429;50.958;3.592;2024-01-11T06:57:10;43.08;;;23.02;;
54167;SDS011;68429;50.958;3.592;2024-01-11T06:59:36;41.00;;;22.02;;
54167;SDS011;68429;50.958;3.592;2024-01-11T07:02:02;41.53;;;20.98;;
54167;SDS011;68429;50.958;3.592;2024-01-11T07:04:28;38.03;;;21.98;;
54167;SDS011;68429;50.958;3.592;2024-01-11T07:06:53;38.42;;;21.50;;
54167;SDS011;68429;50.958;3.592;2024-01-11T07:09:19;43.72;;;22.42;;
54167;SDS011;68429;50.958;3.592;2024-01-11T07:11:45;44.28;;;22.42;;
54167;SDS011;68429;50.958;3.592;2024-01-11T07:14:11;39.97;;;22.73;;
54167;SDS011;68429;50.958;3.592;2024-01-11T07:16:36;45.97;;;24.10;;
54167;SDS011;68429;50.958;3.592;2024-01-11T07:19:02;56.97;;;23.55;;
54167;SDS011;68429;50.958;3.592;2024-01-11T07:21:28;50.33;;;23.15;;
54167;SDS011;68429;50.958;3.592;2024-01-11T07:24:00;44.33;;;23.23;;
54167;SDS011;68429;50.958;3.592;2024-01-11T07:26:26;42.70;;;21.98;;
54167;SDS011;68429;50.958;3.592;2024-01-11T07:28:52;40.50;;;23.45;;
54167;SDS011;68429;50.958;3.592;2024-01-11T07:31:20;44.53;;;24.10;;
54167;SDS011;68429;50.958;3.592;2024-01-11T07:33:45;52.35;;;25.05;;
54167;SDS011;68429;50.958;3.592;2024-01-11T07:36:11;49.15;;;23.02;;
54167;SDS011;68429;50.958;3.592;2024-01-11T07:38:37;50.00;;;25.00;;
54167;SDS011;68429;50.958;3.592;2024-01-11T07:41:03;50.33;;;24.90;;
54167;SDS011;68429;50.958;3.592;2024-01-11T07:43:28;57.50;;;25.88;;
54167;SDS011;68429;50.958;3.592;2024-01-11T07:45:54;51.15;;;25.23;;
54167;SDS011;68429;50.958;3.592;2024-01-11T07:50:49;43.42;;;21.75;;
54167;SDS011;68429;50.958;3.592;2024-01-11T07:53:15;47.05;;;23.48;;
54167;SDS011;68429;50.958;3.592;2024-01-11T07:55:41;43.90;;;23.23;;
54167;SDS011;68429;50.958;3.592;2024-01-11T07:58:06;59.47;;;23.75;;
54167;SDS011;68429;50.958;3.592;2024-01-11T08:00:32;43.17;;;23.00;;
54167;SDS011;68429;50.958;3.592;2024-01-11T08:02:58;45.10;;;24.42;;
54167;SDS011;68429;50.958;3.592;2024-01-11T08:05:24;49.70;;;24.23;;
54167;SDS011;68429;50.958;3.592;2024-01-11T08:07:51;51.70;;;26.98;;
54167;SDS011;68429;50.958;3.592;2024-01-11T08:10:16;48.85;;;27.20;;
54167;SDS011;68429;50.958;3.592;2024-01-11T08:12:42;46.60;;;25.00;;
54167;SDS011;68429;50.958;3.592;2024-01-11T08:15:08;45.05;;;24.73;;
54167;SDS011;68429;50.958;3.592;2024-01-11T08:17:37;46.47;;;25.08;;
54167;SDS011;68429;50.958;3.592;2024-01-11T08:20:04;45.90;;;24.52;;
54167;SDS011;68429;50.958;3.592;2024-01-11T08:22:33;40.90;;;22.15;;
54167;SDS011;68429;50.958;3.592;2024-01-11T08:25:01;59.38;;;27.30;;
54167;SDS011;68429;50.958;3.592;2024-01-11T08:27:29;53.03;;;24.52;;
54167;SDS011;68429;50.958;3.592;2024-01-11T08:29:56;44.70;;;24.77;;
54167;SDS011;68429;50.958;3.592;2024-01-11T08:32:22;45.25;;;23.85;;
54167;SDS011;68429;50.958;3.592;2024-01-11T08:34:48;44.50;;;23.92;;
54167;SDS011;68429;50.958;3.592;2024-01-11T08:37:13;44.75;;;23.58;;
54167;SDS011;68429;50.958;3.592;2024-01-11T08:39:39;38.88;;;22.17;;
54167;SDS011;68429;50.958;3.592;2024-01-11T08:42:05;45.47;;;21.88;;
54167;SDS011;68429;50.958;3.592;2024-01-11T08:44:31;34.10;;;19.52;;
54167;SDS011;68429;50.958;3.592;2024-01-11T08:46:57;32.40;;;19.05;;
54167;SDS011;68429;50.958;3.592;2024-01-11T08:49:24;38.05;;;21.15;;
54167;SDS011;68429;50.958;3.592;2024-01-11T08:51:50;41.55;;;22.00;;
54167;SDS011;68429;50.958;3.592;2024-01-11T08:54:16;42.72;;;21.35;;
54167;SDS011;68429;50.958;3.592;2024-01-11T08:56:42;41.85;;;22.23;;
54167;SDS011;68429;50.958;3.592;2024-01-11T08:59:07;37.72;;;20.95;;
54167;SDS011;68429;50.958;3.592;2024-01-11T09:01:36;36.08;;;20.35;;
54167;SDS011;68429;50.958;3.592;2024-01-11T09:04:02;48.72;;;24.83;;
54167;SDS011;68429;50.958;3.592;2024-01-11T09:06:29;37.90;;;23.38;;
54167;SDS011;68429;50.958;3.592;2024-01-11T09:08:55;43.63;;;22.90;;
54167;SDS011;68429;50.958;3.592;2024-01-11T09:11:21;33.80;;;22.50;;
54167;SDS011;68429;50.958;3.592;2024-01-11T09:13:46;33.58;;;23.10;;
54167;SDS011;68429;50.958;3.592;2024-01-11T09:16:15;32.65;;;19.40;;
54167;SDS011;68429;50.958;3.592;2024-01-11T09:18:42;33.17;;;19.08;;
54167;SDS011;68429;50.958;3.592;2024-01-11T09:21:08;39.70;;;19.73;;
54167;SDS011;68429;50.958;3.592;2024-01-11T09:23:34;33.05;;;19.05;;
54167;SDS011;68429;50.958;3.592;2024-01-11T09:26:00;30.80;;;19.58;;
54167;SDS011;68429;50.958;3.592;2024-01-11T09:28:26;41.10;;;20.40;;
54167;SDS011;68429;50.958;3.592;2024-01-11T09:30:51;35.20;;;19.27;;
54167;SDS011;68429;50.958;3.592;2024-01-11T09:33:17;38.35;;;20.20;;
54167;SDS011;68429;50.958;3.592;2024-01-11T09:35:43;31.23;;;18.88;;
54167;SDS011;68429;50.958;3.592;2024-01-11T09:38:08;30.80;;;18.67;;
54167;SDS011;68429;50.958;3.592;2024-01-11T09:40:36;31.88;;;19.30;;
54167;SDS011;68429;50.958;3.592;2024-01-11T09:43:02;31.65;;;19.63;;
54167;SDS011;68429;50.958;3.592;2024-01-11T09:45:29;33.85;;;19.23;;
54167;SDS011;68429;50.958;3.592;2024-01-11T09:47:55;31.15;;;19.08;;
54167;SDS011;68429;50.958;3.592;2024-01-11T09:50:21;30.83;;;19.52;;
54167;SDS011;68429;50.958;3.592;2024-01-11T09:52:49;31.45;;;18.38;;
54167;SDS011;68429;50.958;3.592;2024-01-11T09:55:15;38.03;;;19.23;;
54167;SDS011;68429;50.958;3.592;2024-01-11T09:57:44;36.65;;;19.00;;
54167;SDS011;68429;50.958;3.592;2024-01-11T10:02:47;38.63;;;19.50;;
54167;SDS011;68429;50.958;3.592;2024-01-11T10:05:13;38.08;;;21.05;;
54167;SDS011;68429;50.958;3.592;2024-01-11T10:07:39;30.65;;;18.13;;
54167;SDS011;68429;50.958;3.592;2024-01-11T10:10:05;34.15;;;17.50;;
54167;SDS011;68429;50.958;3.592;2024-01-11T10:12:34;34.08;;;20.38;;
54167;SDS011;68429;50.958;3.592;2024-01-11T10:15:04;29.35;;;19.05;;
54167;SDS011;68429;50.958;3.592;2024-01-11T10:17:34;33.60;;;18.77;;
54167;SDS011;68429;50.958;3.592;2024-01-11T10:20:10;33.17;;;18.48;;
54167;SDS011;68429;50.958;3.592;2024-01-11T10:22:39;32.90;;;18.80;;
54167;SDS011;68429;50.958;3.592;2024-01-11T10:25:12;32.75;;;18.70;;
54167;SDS011;68429;50.958;3.592;2024-01-11T10:27:39;35.58;;;20.25;;
54167;SDS011;68429;50.958;3.592;2024-01-11T10:30:09;32.42;;;20.70;;
54167;SDS011;68429;50.958;3.592;2024-01-11T10:32:41;37.90;;;20.00;;
54167;SDS011;68429;50.958;3.592;2024-01-11T10:35:08;35.47;;;19.38;;
54167;SDS011;68429;50.958;3.592;2024-01-11T10:37:34;34.90;;;18.50;;
54167;SDS011;68429;50.958;3.592;2024-01-11T10:40:03;32.72;;;19.45;;
54167;SDS011;68429;50.958;3.592;2024-01-11T10:42:44;35.30;;;19.25;;
54167;SDS011;68429;50.958;3.592;2024-01-11T10:45:14;32.92;;;19.92;;
54167;SDS011;68429;50.958;3.592;2024-01-11T10:47:53;33.53;;;19.67;;
54167;SDS011;68429;50.958;3.592;2024-01-11T10:50:22;31.67;;;19.35;;
54167;SDS011;68429;50.958;3.592;2024-01-11T10:55:21;36.58;;;19.27;;
54167;SDS011;68429;50.958;3.592;2024-01-11T10:57:48;31.23;;;19.40;;
54167;SDS011;68429;50.958;3.592;2024-01-11T11:00:15;40.03;;;20.15;;
54167;SDS011;68429;50.958;3.592;2024-01-11T11:02:43;34.33;;;20.20;;
54167;SDS011;68429;50.958;3.592;2024-01-11T11:05:09;34.15;;;19.70;;
54167;SDS011;68429;50.958;3.592;2024-01-11T11:07:38;34.78;;;20.52;;
54167;SDS011;68429;50.958;3.592;2024-01-11T11:10:05;31.40;;;18.33;;
54167;SDS011;68429;50.958;3.592;2024-01-11T11:12:33;38.40;;;20.98;;
54167;SDS011;68429;50.958;3.592;2024-01-11T11:15:01;34.15;;;18.67;;
54167;SDS011;68429;50.958;3.592;2024-01-11T11:17:28;34.50;;;19.88;;
54167;SDS011;68429;50.958;3.592;2024-01-11T11:19:54;33.90;;;18.73;;
54167;SDS011;68429;50.958;3.592;2024-01-11T11:22:20;32.33;;;19.40;;
54167;SDS011;68429;50.958;3.592;2024-01-11T11:24:45;37.55;;;18.98;;
54167;SDS011;68429;50.958;3.592;2024-01-11T11:27:14;45.42;;;21.33;;
54167;SDS011;68429;50.958;3.592;2024-01-11T11:29:41;42.58;;;20.35;;
54167;SDS011;68429;50.958;3.592;2024-01-11T11:32:11;40.72;;;20.55;;
54167;SDS011;68429;50.958;3.592;2024-01-11T11:34:41;36.10;;;20.15;;
54167;SDS011;68429;50.958;3.592;2024-01-11T11:37:09;38.70;;;20.48;;
54167;SDS011;68429;50.958;3.592;2024-01-11T11:39:35;27.45;;;13.52;;
54167;SDS011;68429;50.958;3.592;2024-01-11T11:42:01;36.63;;;21.05;;
54167;SDS011;68429;50.958;3.592;2024-01-11T11:44:29;39.30;;;20.33;;
54167;SDS011;68429;50.958;3.592;2024-01-11T11:46:55;37.47;;;19.10;;
54167;SDS011;68429;50.958;3.592;2024-01-11T11:52:29;44.17;;;20.33;;
54167;SDS011;68429;50.958;3.592;2024-01-11T11:54:57;36.15;;;18.55;;
54167;SDS011;68429;50.958;3.592;2024-01-11T11:57:24;38.20;;;18.98;;
54167;SDS011;68429;50.958;3.592;2024-01-11T11:59:52;33.08;;;18.63;;
54167;SDS011;68429;50.958;3.592;2024-01-11T12:02:28;31.90;;;17.33;;
54167;SDS011;68429;50.958;3.592;2024-01-11T12:04:53;35.72;;;16.77;;
54167;SDS011;68429;50.958;3.592;2024-01-11T12:07:20;37.42;;;19.20;;
54167;SDS011;68429;50.958;3.592;2024-01-11T12:09:47;34.53;;;18.55;;
54167;SDS011;68429;50.958;3.592;2024-01-11T12:12:13;27.75;;;15.98;;
54167;SDS011;68429;50.958;3.592;2024-01-11T12:14:39;31.92;;;16.95;;
54167;SDS011;68429;50.958;3.592;2024-01-11T12:17:06;35.05;;;17.05;;
54167;SDS011;68429;50.958;3.592;2024-01-11T12:19:32;34.13;;;17.38;;
54167;SDS011;68429;50.958;3.592;2024-01-11T12:21:58;32.97;;;18.00;;
54167;SDS011;68429;50.958;3.592;2024-01-11T12:24:24;34.17;;;17.50;;
54167;SDS011;68429;50.958;3.592;2024-01-11T12:26:50;28.88;;;16.90;;
54167;SDS011;68429;50.958;3.592;2024-01-11T12:29:19;31.10;;;16.98;;
54167;SDS011;68429;50.958;3.592;2024-01-11T12:31:45;34.30;;;18.40;;
54167;SDS011;68429;50.958;3.592;2024-01-11T12:34:11;30.83;;;18.05;;
54167;SDS011;68429;50.958;3.592;2024-01-11T12:36:38;28.90;;;16.70;;
54167;SDS011;68429;50.958;3.592;2024-01-11T12:39:04;29.80;;;17.70;;
54167;SDS011;68429;50.958;3.592;2024-01-11T12:41:31;36.03;;;17.70;;
54167;SDS011;68429;50.958;3.592;2024-01-11T12:43:58;30.45;;;17.17;;
54167;SDS011;68429;50.958;3.592;2024-01-11T12:46:23;29.15;;;17.20;;
54167;SDS011;68429;50.958;3.592;2024-01-11T12:48:49;29.08;;;16.20;;
54167;SDS011;68429;50.958;3.592;2024-01-11T12:51:16;28.67;;;16.67;;
54167;SDS011;68429;50.958;3.592;2024-01-11T12:53:44;30.52;;;17.52;;
54167;SDS011;68429;50.958;3.592;2024-01-11T12:56:11;35.28;;;18.25;;
54167;SDS011;68429;50.958;3.592;2024-01-11T12:58:40;26.05;;;16.98;;
54167;SDS011;68429;50.958;3.592;2024-01-11T13:01:07;26.77;;;16.88;;
54167;SDS011;68429;50.958;3.592;2024-01-11T13:03:35;26.48;;;16.23;;
54167;SDS011;68429;50.958;3.592;2024-01-11T13:06:04;28.88;;;16.80;;
54167;SDS011;68429;50.958;3.592;2024-01-11T13:08:33;26.35;;;17.08;;
54167;SDS011;68429;50.958;3.592;2024-01-11T13:11:01;25.95;;;16.38;;
54167;SDS011;68429;50.958;3.592;2024-01-11T13:13:31;26.63;;;16.75;;
54167;SDS011;68429;50.958;3.592;2024-01-11T13:15:58;29.50;;;18.48;;
54167;SDS011;68429;50.958;3.592;2024-01-11T13:18:24;28.73;;;17.45;;
54167;SDS011;68429;50.958;3.592;2024-01-11T13:20:49;28.05;;;17.38;;
54167;SDS011;68429;50.958;3.592;2024-01-11T13:23:18;23.63;;;15.80;;
54167;SDS011;68429;50.958;3.592;2024-01-11T13:25:46;24.92;;;16.20;;
54167;SDS011;68429;50.958;3.592;2024-01-11T13:28:12;27.92;;;17.15;;
54167;SDS011;68429;50.958;3.592;2024-01-11T13:30:42;24.60;;;17.45;;
54167;SDS011;68429;50.958;3.592;2024-01-11T13:33:09;26.17;;;14.75;;
54167;SDS011;68429;50.958;3.592;2024-01-11T13:35:39;23.17;;;15.73;;
54167;SDS011;68429;50.958;3.592;2024-01-11T13:38:07;23.20;;;15.63;;
54167;SDS011;68429;50.958;3.592;2024-01-11T13:40:33;21.83;;;14.77;;
54167;SDS011;68429;50.958;3.592;2024-01-11T13:42:59;21.83;;;14.65;;
54167;SDS011;68429;50.958;3.592;2024-01-11T13:45:26;19.42;;;13.20;;
54167;SDS011;68429;50.958;3.592;2024-01-11T13:47:52;20.50;;;13.73;;
54167;SDS011;68429;50.958;3.592;2024-01-11T13:50:24;19.23;;;13.65;;
54167;SDS011;68429;50.958;3.592;2024-01-11T13:52:50;20.55;;;13.85;;
54167;SDS011;68429;50.958;3.592;2024-01-11T13:55:16;23.70;;;12.88;;
54167;SDS011;68429;50.958;3.592;2024-01-11T13:57:49;23.02;;;12.95;;
54167;SDS011;68429;50.958;3.592;2024-01-11T14:00:15;18.35;;;12.48;;
54167;SDS011;68429;50.958;3.592;2024-01-11T14:02:43;19.42;;;12.45;;
54167;SDS011;68429;50.958;3.592;2024-01-11T14:05:10;19.48;;;13.48;;
54167;SDS011;68429;50.958;3.592;2024-01-11T14:07:38;33.70;;;20.53;;
54167;SDS011;68429;50.958;3.592;2024-01-11T14:10:05;15.85;;;11.18;;
54167;SDS011;68429;50.958;3.592;2024-01-11T14:12:31;22.77;;;13.18;;
54167;SDS011;68429;50.958;3.592;2024-01-11T14:14:57;21.90;;;13.75;;
54167;SDS011;68429;50.958;3.592;2024-01-11T14:17:23;18.73;;;12.32;;
54167;SDS011;68429;50.958;3.592;2024-01-11T14:19:49;20.15;;;13.48;;
54167;SDS011;68429;50.958;3.592;2024-01-11T14:22:14;25.02;;;14.05;;
54167;SDS011;68429;50.958;3.592;2024-01-11T14:24:40;21.17;;;13.60;;
54167;SDS011;68429;50.958;3.592;2024-01-11T14:27:06;22.33;;;13.65;;